Bratsk, Russia

2:51 PM IRKT on February 10, 2016 (GMT +0800)
Bratsk | | Change Station
CLOSE
Current Station
Airport
Location: Bratsk,
Elevation: 1608 ft
Nearby Weather Stations

Elev 1608 ft 56.37 °N, 101.70 °E | Updated 21 minutes ago

Light Snow Showers
Light Showers Snow
16 °F
Feels Like 3 °F
N
11
Wind Variable Wind from WSW

Today
High -- | Low -- °F
--% Chance of Precip.
Yesterday
High -- | Low -- °F
Precip. -- in
Pressure 29.86 in
Visibility 4.3 miles
Clouds Mostly Cloudy 1700 ft
Windchill 3 °F
Dew Point 9 °F
Humidity 73%
Rainfall 0.00 in
Snow Depth Not available.
8:52 AM 6:02 PM
Waxing Crescent, 4% visible
METAR UIBB 100630Z 25005MPS 7000 -SHSN BKN017CB M09/M13 Q1011 R30/390132 NOSIG RMK QFE715/0954
Pressure 29.86 in
Visibility 4.3 miles
Clouds Mostly Cloudy 1700 ft
Windchill 3 °F
Dew Point 9 °F
Humidity 73%
Rainfall 0.00 in
Snow Depth Not available.
8:52 AM 6:02 PM
Waxing Crescent, 4% visible
METAR UIBB 100630Z 25005MPS 7000 -SHSN BKN017CB M09/M13 Q1011 R30/390132 NOSIG RMK QFE715/0954

10-Day Weather Forecast

Almanac

Astronomy

Feb. 10, 2016 Rise Set
Actual Time
Civil Twilight
Nautical Twilight
Astronomical Twilight
Moon
Length of Visible Light
Length of Day
Tomorrow will be .
, % of the Moon is Illuminated

Today's Extremes

Country Highs Country Lows

Community

WunderPhotos

Upload Photos

1,891,826 photos uploaded!

WunderBlog® & News

Nearby

Air Quality

  Air Quality AQ Index Pollutant
Not available.

Snow Depth

Station Depth Elevation

Earthquake Activity

City Distance Mag. Time & Date
Minimum magnitude displayed is 2.5.

Coastal Water Temperatures

Place Temperature

Stations

Nearby Weather Stations

Station Location Temp. Windchill Dew Point Humidity Wind Precip. Elev Updated Type